Thunder radar more information blitzortung!


Löydät sääaseman tiedot myös:

European Weather Network

Finland Weather Exchange

Weather Underground

AWEKAS



Weather Underground säähistoriasivu

Päivittäin yhteenveto Helmikuu 25, 2017 Yksiköt:  Molemmat    Englantilaiset   Metriset
« Edellinen Päivä
Seuraava Päivä »
Päivittäin Viikoittain Kuukausittain Vuosittain Mukautettu
  Korkea: Matala: Keskiarvo:
Lämpötila: TemperatureC °F /  -17.8 °C -9.9 °F /  -23.3 °C -5.6 °F /  -20.9 °C
Kastepiste: DewpointC °F /  -17.8 °C -11.1 °F /  -23.9 °C -7.4 °F /  -21.9 °C
Kosteus: Humidity % 76 % 86 %
Tuulen nopeus: WindSpeedKMH mph /  0 km/h - 3.3 mph /  5.3 km/h
Tuulenpuuska: WindSpeedGustKMH mph /  0 km/h - -
Tuuli:- - WNW
Ilmanpaine: PressurehPa in /  0 hPa 989.4 in /  33501.1 hPa -
Sade: 0.0 in /  0 mm    
Historical Graphs
 
 
Taulukkotiedot Helmikuu 25, 2017
Aika Lämpötila Kastepiste Ilmanpaine Tuuli Tuulen nopeus Tuulenpuuska Kosteus Sademäärä (tunneittain)
TemperatureC °F /  -17.8 °C DewpointC °F /  -17.8 °C PressurehPa in /  0 hPa Calm     Humidity % HourlyPrecipMM in /  0 mm
00:00 -8.0 °F /  -22.2 °C -9.2 °F /  -22.9 °C 989.4 in /  33501.1 hPa NW 1.6 mph /  2.6 km/h 6.4 mph /  10.3 km/h 91 % 0.0 in /  0 mm
00:15 -7.9 °F /  -22.2 °C -9.2 °F /  -22.9 °C 989.4 in /  33501.1 hPa NW 3.2 mph /  5.1 km/h 8.0 mph /  12.9 km/h 91 % 0.0 in /  0 mm
00:30 -7.9 °F /  -22.2 °C -9.1 °F /  -22.8 °C 989.4 in /  33501.1 hPa NW 3.2 mph /  5.1 km/h 8.0 mph /  12.9 km/h 91 % 0.0 in /  0 mm
00:45 -7.9 °F /  -22.2 °C -9.1 °F /  -22.8 °C 989.7 in /  33511.2 hPa NW 3.2 mph /  5.1 km/h 9.7 mph /  15.6 km/h 91 % 0.0 in /  0 mm
01:00 -7.8 °F /  -22.1 °C -9.0 °F /  -22.8 °C 990.1 in /  33524.8 hPa NW 3.2 mph /  5.1 km/h 12.9 mph /  20.8 km/h 91 % 0.0 in /  0 mm
01:15 -8.0 °F /  -22.2 °C -9.2 °F /  -22.9 °C 990.4 in /  33534.9 hPa NNW 3.2 mph /  5.1 km/h 8.0 mph /  12.9 km/h 91 % 0.0 in /  0 mm
01:30 -8.1 °F /  -22.3 °C -9.3 °F /  -22.9 °C 990.4 in /  33534.9 hPa NW 3.2 mph /  5.1 km/h 8.0 mph /  12.9 km/h 91 % 0.0 in /  0 mm
01:45 -8.1 °F /  -22.3 °C -9.3 °F /  -22.9 °C 990.7 in /  33545.1 hPa NW 3.2 mph /  5.1 km/h 6.4 mph /  10.3 km/h 91 % 0.0 in /  0 mm
02:00 -7.9 °F /  -22.2 °C -9.2 °F /  -22.9 °C 990.7 in /  33545.1 hPa NW 1.6 mph /  2.6 km/h 8.0 mph /  12.9 km/h 91 % 0.0 in /  0 mm
02:15 -7.9 °F /  -22.2 °C -9.2 °F /  -22.9 °C 991.1 in /  33558.6 hPa NW 1.6 mph /  2.6 km/h 8.0 mph /  12.9 km/h 91 % 0.0 in /  0 mm
02:30 -8.0 °F /  -22.2 °C -9.2 °F /  -22.9 °C 991.1 in /  33558.6 hPa NW 3.2 mph /  5.1 km/h 8.0 mph /  12.9 km/h 91 % 0.0 in /  0 mm
02:45 -7.8 °F /  -22.1 °C -8.9 °F /  -22.7 °C 991.4 in /  33568.8 hPa NW 3.2 mph /  5.1 km/h 8.0 mph /  12.9 km/h 92 % 0.0 in /  0 mm
03:00 -7.7 °F /  -22.1 °C -8.7 °F /  -22.6 °C 991.4 in /  33568.8 hPa NW 3.2 mph /  5.1 km/h 6.4 mph /  10.3 km/h 92 % 0.0 in /  0 mm
03:15 -7.5 °F /  -21.9 °C -8.6 °F /  -22.6 °C 991.8 in /  33582.3 hPa NW 4.8 mph /  7.7 km/h 11.3 mph /  18.2 km/h 92 % 0.0 in /  0 mm
03:30 -7.4 °F /  -21.9 °C -8.5 °F /  -22.5 °C 992.1 in /  33592.5 hPa WNW 3.2 mph /  5.1 km/h 11.3 mph /  18.2 km/h 92 % 0.0 in /  0 mm
03:45 -7.4 °F /  -21.9 °C -8.5 °F /  -22.5 °C 992.4 in /  33602.7 hPa NW 3.2 mph /  5.1 km/h 8.0 mph /  12.9 km/h 92 % 0.0 in /  0 mm
04:00 -7.4 °F /  -21.9 °C -8.5 °F /  -22.5 °C 992.4 in /  33602.7 hPa Calm   6.4 mph /  10.3 km/h 92 % 0.0 in /  0 mm
04:15 -7.3 °F /  -21.8 °C -8.4 °F /  -22.4 °C 992.4 in /  33602.7 hPa WNW 1.6 mph /  2.6 km/h 6.4 mph /  10.3 km/h 92 % 0.0 in /  0 mm
04:30 -7.2 °F /  -21.8 °C -8.1 °F /  -22.3 °C 992.4 in /  33602.7 hPa NW 3.2 mph /  5.1 km/h 9.7 mph /  15.6 km/h 93 % 0.0 in /  0 mm
04:45 -7.0 °F /  -21.7 °C -8.1 °F /  -22.3 °C 992.8 in /  33616.2 hPa NW 4.8 mph /  7.7 km/h 9.7 mph /  15.6 km/h 92 % 0.0 in /  0 mm
05:00 -6.9 °F /  -21.6 °C -8.0 °F /  -22.2 °C 992.8 in /  33616.2 hPa NW 3.2 mph /  5.1 km/h 8.0 mph /  12.9 km/h 92 % 0.0 in /  0 mm
05:15 -6.8 °F /  -21.6 °C -7.9 °F /  -22.2 °C 993.1 in /  33626.4 hPa NW 3.2 mph /  5.1 km/h 12.9 mph /  20.8 km/h 92 % 0.0 in /  0 mm
05:30 -6.8 °F /  -21.6 °C -7.9 °F /  -22.2 °C 993.1 in /  33626.4 hPa NW 3.2 mph /  5.1 km/h 9.7 mph /  15.6 km/h 92 % 0.0 in /  0 mm
05:45 -7.0 °F /  -21.7 °C -8.1 °F /  -22.3 °C 993.1 in /  33626.4 hPa NW 1.6 mph /  2.6 km/h 8.0 mph /  12.9 km/h 92 % 0.0 in /  0 mm
06:00 -7.1 °F /  -21.7 °C -8.1 °F /  -22.3 °C 993.5 in /  33639.9 hPa WNW 1.6 mph /  2.6 km/h 8.0 mph /  12.9 km/h 93 % 0.0 in /  0 mm
06:15 -7.3 °F /  -21.8 °C -8.4 °F /  -22.4 °C 993.5 in /  33639.9 hPa WNW 1.6 mph /  2.6 km/h 11.3 mph /  18.2 km/h 92 % 0.0 in /  0 mm
06:30 -7.2 °F /  -21.8 °C -8.0 °F /  -22.2 °C 993.8 in /  33650.1 hPa WNW 3.2 mph /  5.1 km/h 14.5 mph /  23.3 km/h 94 % 0.0 in /  0 mm
06:45 -6.8 °F /  -21.6 °C -7.7 °F /  -22.1 °C 993.8 in /  33650.1 hPa NW 4.8 mph /  7.7 km/h 11.3 mph /  18.2 km/h 93 % 0.0 in /  0 mm
07:00 -6.6 °F /  -21.4 °C -7.7 °F /  -22.1 °C 993.8 in /  33650.1 hPa NW 6.4 mph /  10.3 km/h 9.7 mph /  15.6 km/h 92 % 0.0 in /  0 mm
07:15 -6.8 °F /  -21.6 °C -8.0 °F /  -22.2 °C 993.8 in /  33650.1 hPa NW 4.8 mph /  7.7 km/h 14.5 mph /  23.3 km/h 91 % 0.0 in /  0 mm
07:30 -6.9 °F /  -21.6 °C -8.3 °F /  -22.4 °C 993.8 in /  33650.1 hPa NW 4.8 mph /  7.7 km/h 9.7 mph /  15.6 km/h 90 % 0.0 in /  0 mm
07:45 -7.2 °F /  -21.8 °C -8.7 °F /  -22.6 °C 994.1 in /  33660.2 hPa WNW 3.2 mph /  5.1 km/h 8.0 mph /  12.9 km/h 89 % 0.0 in /  0 mm
08:00 -7.4 °F /  -21.9 °C -8.9 °F /  -22.7 °C 994.1 in /  33660.2 hPa WNW 3.2 mph /  5.1 km/h 11.3 mph /  18.2 km/h 89 % 0.0 in /  0 mm
08:15 -7.4 °F /  -21.9 °C -8.8 °F /  -22.7 °C 994.1 in /  33660.2 hPa WNW 3.2 mph /  5.1 km/h 11.3 mph /  18.2 km/h 90 % 0.0 in /  0 mm
08:30 -7.4 °F /  -21.9 °C -8.9 °F /  -22.7 °C 994.5 in /  33673.8 hPa NW 4.8 mph /  7.7 km/h 11.3 mph /  18.2 km/h 89 % 0.0 in /  0 mm
08:45 -7.3 °F /  -21.8 °C -9.0 °F /  -22.8 °C 994.8 in /  33683.9 hPa WNW 3.2 mph /  5.1 km/h 8.0 mph /  12.9 km/h 88 % 0.0 in /  0 mm
09:00 -7.1 °F /  -21.7 °C -8.8 °F /  -22.7 °C 994.8 in /  33683.9 hPa NW 6.4 mph /  10.3 km/h 12.9 mph /  20.8 km/h 88 % 0.0 in /  0 mm
09:15 -6.9 °F /  -21.6 °C -8.6 °F /  -22.6 °C 995.1 in /  33694.1 hPa NW 4.8 mph /  7.7 km/h 12.9 mph /  20.8 km/h 88 % 0.0 in /  0 mm
09:30 -6.7 °F /  -21.5 °C -8.4 °F /  -22.4 °C 995.1 in /  33694.1 hPa WNW 4.8 mph /  7.7 km/h 14.5 mph /  23.3 km/h 88 % 0.0 in /  0 mm
09:45 -6.6 °F /  -21.4 °C -8.2 °F /  -22.3 °C 995.1 in /  33694.1 hPa WNW 4.8 mph /  7.7 km/h 14.5 mph /  23.3 km/h 88 % 0.0 in /  0 mm
10:00 -6.3 °F /  -21.3 °C -7.9 °F /  -22.2 °C 995.1 in /  33694.1 hPa NW 4.8 mph /  7.7 km/h 9.7 mph /  15.6 km/h 88 % 0.0 in /  0 mm
10:15 -5.9 °F /  -21.1 °C -7.7 °F /  -22.1 °C 995.1 in /  33694.1 hPa NW 6.4 mph /  10.3 km/h 19.3 mph /  31.1 km/h 87 % 0.0 in /  0 mm
10:30 -5.5 °F /  -20.8 °C -7.5 °F /  -21.9 °C 995.5 in /  33707.6 hPa NW 8.0 mph /  12.9 km/h 19.3 mph /  31.1 km/h 86 % 0.0 in /  0 mm
10:45 -5.2 °F /  -20.7 °C -7.1 °F /  -21.7 °C 995.5 in /  33707.6 hPa WNW 6.4 mph /  10.3 km/h 11.3 mph /  18.2 km/h 86 % 0.0 in /  0 mm
11:00 -4.8 °F /  -20.4 °C -7.0 °F /  -21.7 °C 995.5 in /  33707.6 hPa NW 6.4 mph /  10.3 km/h 19.3 mph /  31.1 km/h 85 % 0.0 in /  0 mm
11:15 -4.5 °F /  -20.3 °C -6.6 °F /  -21.4 °C 995.5 in /  33707.6 hPa NW 8.0 mph /  12.9 km/h 19.3 mph /  31.1 km/h 85 % 0.0 in /  0 mm
11:30 -4.2 °F /  -20.1 °C -6.5 °F /  -21.4 °C 995.5 in /  33707.6 hPa NW 8.0 mph /  12.9 km/h 20.9 mph /  33.6 km/h 84 % 0.0 in /  0 mm
11:45 -3.9 °F /  -19.9 °C -6.2 °F /  -21.2 °C 995.8 in /  33717.8 hPa NW 6.4 mph /  10.3 km/h 16.1 mph /  25.9 km/h 84 % 0.0 in /  0 mm
12:00 -3.7 °F /  -19.8 °C -6.1 °F /  -21.2 °C 995.8 in /  33717.8 hPa WNW 6.4 mph /  10.3 km/h 19.3 mph /  31.1 km/h 83 % 0.0 in /  0 mm
12:15 -3.4 °F /  -19.7 °C -6.1 °F /  -21.2 °C 995.5 in /  33707.6 hPa WNW 4.8 mph /  7.7 km/h 16.1 mph /  25.9 km/h 82 % 0.0 in /  0 mm
12:30 -3.2 °F /  -19.6 °C -5.8 °F /  -21 °C 995.5 in /  33707.6 hPa WNW 4.8 mph /  7.7 km/h 20.9 mph /  33.6 km/h 82 % 0.0 in /  0 mm
12:45 -3.1 °F /  -19.5 °C -5.9 °F /  -21.1 °C 995.5 in /  33707.6 hPa WNW 6.4 mph /  10.3 km/h 16.1 mph /  25.9 km/h 81 % 0.0 in /  0 mm
13:00 -2.9 °F /  -19.4 °C -5.9 °F /  -21.1 °C 995.8 in /  33717.8 hPa West 4.8 mph /  7.7 km/h 19.3 mph /  31.1 km/h 80 % 0.0 in /  0 mm
13:15 -2.7 °F /  -19.3 °C -5.8 °F /  -21 °C 995.8 in /  33717.8 hPa West 6.4 mph /  10.3 km/h 17.7 mph /  28.5 km/h 79 % 0.0 in /  0 mm
13:30 -2.4 °F /  -19.1 °C -5.5 °F /  -20.8 °C 995.8 in /  33717.8 hPa West 6.4 mph /  10.3 km/h 19.3 mph /  31.1 km/h 79 % 0.0 in /  0 mm
13:45 -2.2 °F /  -19 °C -5.5 °F /  -20.8 °C 995.8 in /  33717.8 hPa WNW 6.4 mph /  10.3 km/h 20.9 mph /  33.6 km/h 78 % 0.0 in /  0 mm
14:00 -2.2 °F /  -19 °C -5.5 °F /  -20.8 °C 995.8 in /  33717.8 hPa NW 6.4 mph /  10.3 km/h 17.7 mph /  28.5 km/h 78 % 0.0 in /  0 mm
14:15 -2.1 °F /  -18.9 °C -5.4 °F /  -20.8 °C 995.8 in /  33717.8 hPa WNW 4.8 mph /  7.7 km/h 16.1 mph /  25.9 km/h 78 % 0.0 in /  0 mm
14:30 -2.1 °F /  -18.9 °C -5.4 °F /  -20.8 °C 995.8 in /  33717.8 hPa WNW 6.4 mph /  10.3 km/h 24.1 mph /  38.8 km/h 78 % 0.0 in /  0 mm
14:45 -1.9 °F /  -18.8 °C -5.4 °F /  -20.8 °C 995.8 in /  33717.8 hPa WNW 6.4 mph /  10.3 km/h 19.3 mph /  31.1 km/h 77 % 0.0 in /  0 mm
15:00 -1.8 °F /  -18.8 °C -5.3 °F /  -20.7 °C 996.2 in /  33731.3 hPa WNW 6.4 mph /  10.3 km/h 16.1 mph /  25.9 km/h 77 % 0.0 in /  0 mm
15:15 -1.8 °F /  -18.8 °C -5.5 °F /  -20.8 °C 996.2 in /  33731.3 hPa WNW 6.4 mph /  10.3 km/h 19.3 mph /  31.1 km/h 76 % 0.0 in /  0 mm
15:30 -1.8 °F /  -18.8 °C -5.5 °F /  -20.8 °C 996.2 in /  33731.3 hPa NW 8.0 mph /  12.9 km/h 20.9 mph /  33.6 km/h 76 % 0.0 in /  0 mm
15:45 -1.7 °F /  -18.7 °C -5.3 °F /  -20.7 °C 996.2 in /  33731.3 hPa NW 4.8 mph /  7.7 km/h 19.3 mph /  31.1 km/h 76 % 0.0 in /  0 mm
16:00 -1.7 °F /  -18.7 °C -5.4 °F /  -20.8 °C 996.2 in /  33731.3 hPa West 4.8 mph /  7.7 km/h 12.9 mph /  20.8 km/h 76 % 0.0 in /  0 mm
16:15 -2.1 °F /  -18.9 °C -5.4 °F /  -20.8 °C 996.2 in /  33731.3 hPa WNW 4.8 mph /  7.7 km/h 14.5 mph /  23.3 km/h 78 % 0.0 in /  0 mm
16:30 -2.2 °F /  -19 °C -5.5 °F /  -20.8 °C 996.2 in /  33731.3 hPa WNW 4.8 mph /  7.7 km/h 17.7 mph /  28.5 km/h 78 % 0.0 in /  0 mm
16:45 -2.4 °F /  -19.1 °C -5.6 °F /  -20.9 °C 996.2 in /  33731.3 hPa West 3.2 mph /  5.1 km/h 11.3 mph /  18.2 km/h 79 % 0.0 in /  0 mm
17:00 -2.6 °F /  -19.2 °C -5.5 °F /  -20.8 °C 996.5 in /  33741.5 hPa WNW 3.2 mph /  5.1 km/h 9.7 mph /  15.6 km/h 80 % 0.0 in /  0 mm
17:15 -2.8 °F /  -19.3 °C -5.6 °F /  -20.9 °C 996.5 in /  33741.5 hPa West 1.6 mph /  2.6 km/h 6.4 mph /  10.3 km/h 81 % 0.0 in /  0 mm
17:30 -3.2 °F /  -19.6 °C -5.8 °F /  -21 °C 996.5 in /  33741.5 hPa West 1.6 mph /  2.6 km/h 8.0 mph /  12.9 km/h 82 % 0.0 in /  0 mm
17:45 -3.4 °F /  -19.7 °C -5.9 °F /  -21.1 °C 996.5 in /  33741.5 hPa West 1.6 mph /  2.6 km/h 6.4 mph /  10.3 km/h 83 % 0.0 in /  0 mm
18:00 -3.7 °F /  -19.8 °C -6.0 °F /  -21.1 °C 996.5 in /  33741.5 hPa Calm   4.8 mph /  7.7 km/h 84 % 0.0 in /  0 mm
18:15 -4.1 °F /  -20.1 °C -6.2 °F /  -21.2 °C 996.5 in /  33741.5 hPa West 1.6 mph /  2.6 km/h 4.8 mph /  7.7 km/h 85 % 0.0 in /  0 mm
18:30 -4.4 °F /  -20.2 °C -6.4 °F /  -21.3 °C 996.5 in /  33741.5 hPa Calm   4.8 mph /  7.7 km/h 86 % 0.0 in /  0 mm
18:45 -4.7 °F /  -20.4 °C -6.6 °F /  -21.4 °C 996.5 in /  33741.5 hPa West 1.6 mph /  2.6 km/h 6.4 mph /  10.3 km/h 87 % 0.0 in /  0 mm
19:00 -4.8 °F /  -20.4 °C -6.5 °F /  -21.4 °C 996.5 in /  33741.5 hPa WSW 1.6 mph /  2.6 km/h 6.4 mph /  10.3 km/h 88 % 0.0 in /  0 mm
19:15 -5.0 °F /  -20.6 °C -6.7 °F /  -21.5 °C 996.5 in /  33741.5 hPa WSW 1.6 mph /  2.6 km/h 4.8 mph /  7.7 km/h 88 % 0.0 in /  0 mm
19:30 -5.2 °F /  -20.7 °C -6.9 °F /  -21.6 °C 996.5 in /  33741.5 hPa WSW 1.6 mph /  2.6 km/h 6.4 mph /  10.3 km/h 88 % 0.0 in /  0 mm
19:45 -5.5 °F /  -20.8 °C -7.0 °F /  -21.7 °C 996.5 in /  33741.5 hPa WSW 1.6 mph /  2.6 km/h 8.0 mph /  12.9 km/h 89 % 0.0 in /  0 mm
20:00 -5.6 °F /  -20.9 °C -7.1 °F /  -21.7 °C 996.5 in /  33741.5 hPa Calm   3.2 mph /  5.1 km/h 89 % 0.0 in /  0 mm
20:15 -5.6 °F /  -20.9 °C -7.1 °F /  -21.7 °C 996.5 in /  33741.5 hPa WSW 1.6 mph /  2.6 km/h 4.8 mph /  7.7 km/h 89 % 0.0 in /  0 mm
20:30 -5.6 °F /  -20.9 °C -7.0 °F /  -21.7 °C 996.5 in /  33741.5 hPa Calm     90 % 0.0 in /  0 mm
20:45 -5.6 °F /  -20.9 °C -6.9 °F /  -21.6 °C 996.5 in /  33741.5 hPa Calm   4.8 mph /  7.7 km/h 90 % 0.0 in /  0 mm
21:00 -5.5 °F /  -20.8 °C -7.0 °F /  -21.7 °C 996.5 in /  33741.5 hPa Calm   3.2 mph /  5.1 km/h 89 % 0.0 in /  0 mm
21:15 -5.7 °F /  -20.9 °C -7.2 °F /  -21.8 °C 996.5 in /  33741.5 hPa WSW 1.6 mph /  2.6 km/h 4.8 mph /  7.7 km/h 89 % 0.0 in /  0 mm
21:30 -5.9 °F /  -21.1 °C -7.3 °F /  -21.8 °C 996.5 in /  33741.5 hPa Calm   4.8 mph /  7.7 km/h 90 % 0.0 in /  0 mm
21:45 -5.9 °F /  -21.1 °C -7.3 °F /  -21.8 °C 996.5 in /  33741.5 hPa Calm     90 % 0.0 in /  0 mm
22:00 -6.1 °F /  -21.2 °C -7.6 °F /  -22 °C 996.5 in /  33741.5 hPa Calm     89 % 0.0 in /  0 mm
22:15 -7.0 °F /  -21.7 °C -8.7 °F /  -22.6 °C 996.5 in /  33741.5 hPa Calm     88 % 0.0 in /  0 mm
22:30 -7.8 °F /  -22.1 °C -9.3 °F /  -22.9 °C 996.5 in /  33741.5 hPa Calm     89 % 0.0 in /  0 mm
22:45 -8.3 °F /  -22.4 °C -9.6 °F /  -23.1 °C 996.5 in /  33741.5 hPa Calm     90 % 0.0 in /  0 mm
23:00 -8.6 °F /  -22.6 °C -9.8 °F /  -23.2 °C 996.5 in /  33741.5 hPa Calm     91 % 0.0 in /  0 mm
23:15 -8.9 °F /  -22.7 °C -10.3 °F /  -23.5 °C 996.5 in /  33741.5 hPa Calm     90 % 0.0 in /  0 mm
23:30 -9.6 °F /  -23.1 °C -11.0 °F /  -23.9 °C 996.2 in /  33731.3 hPa Calm     89 % 0.0 in /  0 mm
23:45 -9.9 °F /  -23.3 °C -11.1 °F /  -23.9 °C 996.2 in /  33731.3 hPa Calm     91 % 0.0 in /  0 mm
Esan sääasema
Terveisin Weather Underground - 2.75 mb

Alkuperäinen skripti  Jim McMurry - jmcmurry@mwt.net Sovitettu myös templatelle  Wim van der Kuil - Leuven-Template.eu

Laitteet joita käytämme:

Sääasema
Davis VP2

Sääasemaohjelma
Cumulus

Sääaseman tietokone
Asus EeePC

Palveluntarjoaja
Suncomet

Davis VP2

Cumulus

Asus EeePC

Suncomet